UKR1 UKFF-UKFF
Flight info
| Callsign | UKR1 |
|---|---|
| Flight time | N/A |
| Altitude | 3000 |
| Route | DCT |
| Aircraft | L29/L-SDFGHIM1RTUWXY/LB1 |
Departure
| Time | 2026-04-25 20:28 |
|---|---|
| Airport | Simferopol International Airport (UKFF) |
Arrival
| Time | N/A |
|---|---|
| Airport | Simferopol International Airport (UKFF) |
| Time | Latitude | Longitude | Altitude | Speed | Heading |
|---|---|---|---|---|---|
| 2026-04-25 20:17 | 45.03380 | 33.97673 | 605 ft | 0 kts | 14° |
| 2026-04-25 20:18 | 45.03381 | 33.97674 | 605 ft | 0 kts | 14° |
| 2026-04-25 20:18 | 45.03400 | 33.97673 | 606 ft | 5 kts | 348° |
| 2026-04-25 20:19 | 45.03452 | 33.97633 | 606 ft | 4 kts | 319° |
| 2026-04-25 20:19 | 45.03479 | 33.97582 | 606 ft | 9 kts | 294° |
| 2026-04-25 20:19 | 45.03500 | 33.97457 | 603 ft | 16 kts | 278° |
| 2026-04-25 20:19 | 45.03518 | 33.97262 | 600 ft | 23 kts | 278° |
| 2026-04-25 20:20 | 45.03551 | 33.97043 | 595 ft | 6 kts | 288° |
| 2026-04-25 20:20 | 45.03560 | 33.97007 | 595 ft | 1 kts | 288° |
| 2026-04-25 20:20 | 45.03562 | 33.97001 | 595 ft | 3 kts | 285° |
| 2026-04-25 20:21 | 45.03603 | 33.96984 | 594 ft | 0 kts | 277° |
| 2026-04-25 20:21 | 45.03605 | 33.96983 | 595 ft | 0 kts | 351° |
| 2026-04-25 20:21 | 45.03606 | 33.96983 | 595 ft | 0 kts | 351° |
| 2026-04-25 20:22 | 45.03608 | 33.96983 | 595 ft | 1 kts | 349° |
| 2026-04-25 20:22 | 45.03676 | 33.96948 | 594 ft | 11 kts | 336° |
| 2026-04-25 20:22 | 45.03795 | 33.96887 | 592 ft | 0 kts | 17° |
| 2026-04-25 20:23 | 45.03805 | 33.96890 | 592 ft | 4 kts | 3° |
| 2026-04-25 20:23 | 45.03860 | 33.96872 | 592 ft | 11 kts | 337° |
| 2026-04-25 20:23 | 45.03892 | 33.96845 | 590 ft | 0 kts | 322° |
| 2026-04-25 20:23 | 45.03834 | 33.96915 | 593 ft | 0 kts | 21° |
| 2026-04-25 20:24 | 45.03835 | 33.96915 | 593 ft | 0 kts | 20° |
| 2026-04-25 20:24 | 45.03743 | 33.96660 | 637 ft | 59 kts | 328° |
| 2026-04-25 20:24 | 45.03746 | 33.96662 | 598 ft | 3 kts | 279° |
| 2026-04-25 20:25 | 45.03377 | 33.97673 | 608 ft | 0 kts | 14° |
| 2026-04-25 20:26 | 45.03378 | 33.97673 | 608 ft | 0 kts | 12° |
| 2026-04-25 20:26 | 45.03408 | 33.97637 | 608 ft | 14 kts | 311° |
| 2026-04-25 20:27 | 45.03470 | 33.97385 | 604 ft | 35 kts | 288° |
| 2026-04-25 20:27 | 45.03584 | 33.97033 | 598 ft | 36 kts | 320° |
| 2026-04-25 20:27 | 45.03823 | 33.96950 | 596 ft | 37 kts | 0° |
| 2026-04-25 20:27 | 45.04301 | 33.97078 | 590 ft | 103 kts | 11° |
| 2026-04-25 20:28 | 45.05200 | 33.97371 | 585 ft | 160 kts | 13° |
| 2026-04-25 20:28 | 45.06427 | 33.97779 | 671 ft | 190 kts | 11° |
| 2026-04-25 20:28 | 45.07726 | 33.98128 | 1269 ft | 188 kts | 11° |
| 2026-04-25 20:28 | 45.09067 | 33.98529 | 1556 ft | 207 kts | 358° |
| 2026-04-25 20:29 | 45.09534 | 33.98502 | 1718 ft | 207 kts | 348° |